sensor_id;sensor_type;location;lat;lon;timestamp;pressure;altitude;pressure_sealevel;temperature;humidity
50093;BME280;35974;47.752;10.290;2022-09-12T00:01:15;94048.13;;;8.68;87.48
50093;BME280;35974;47.752;10.290;2022-09-12T00:03:42;94040.53;;;8.52;88.35
50093;BME280;35974;47.752;10.290;2022-09-12T00:06:20;94041.72;;;8.49;88.83
50093;BME280;35974;47.752;10.290;2022-09-12T00:08:49;94048.97;;;8.54;88.97
50093;BME280;35974;47.752;10.290;2022-09-12T00:11:16;94067.84;;;8.56;88.91
50093;BME280;35974;47.752;10.290;2022-09-12T00:13:42;94060.66;;;8.58;89.48
50093;BME280;35974;47.752;10.290;2022-09-12T00:16:21;94052.19;;;8.56;88.58
50093;BME280;35974;47.752;10.290;2022-09-12T00:18:48;94038.78;;;8.37;88.62
50093;BME280;35974;47.752;10.290;2022-09-12T00:21:17;94065.63;;;8.53;88.64
50093;BME280;35974;47.752;10.290;2022-09-12T00:23:44;94056.81;;;8.54;89.40
50093;BME280;35974;47.752;10.290;2022-09-12T00:26:12;94042.19;;;8.38;89.56
50093;BME280;35974;47.752;10.290;2022-09-12T00:28:40;94059.16;;;8.49;89.81
50093;BME280;35974;47.752;10.290;2022-09-12T00:31:12;93998.03;;;8.15;89.85
50093;BME280;35974;47.752;10.290;2022-09-12T00:33:39;94027.84;;;8.27;89.01
50093;BME280;35974;47.752;10.290;2022-09-12T00:36:09;94028.59;;;8.21;88.69
50093;BME280;35974;47.752;10.290;2022-09-12T00:38:36;94031.44;;;8.26;88.71
50093;BME280;35974;47.752;10.290;2022-09-12T00:41:04;93953.22;;;7.83;89.00
50093;BME280;35974;47.752;10.290;2022-09-12T00:43:38;94043.97;;;8.37;89.26
50093;BME280;35974;47.752;10.290;2022-09-12T00:49:17;94027.31;;;8.17;87.98
50093;BME280;35974;47.752;10.290;2022-09-12T00:51:54;93997.91;;;8.01;87.70
50093;BME280;35974;47.752;10.290;2022-09-12T00:54:27;93995.31;;;8.01;87.42
50093;BME280;35974;47.752;10.290;2022-09-12T00:56:59;93994.59;;;7.93;87.33
50093;BME280;35974;47.752;10.290;2022-09-12T00:59:31;94021.53;;;8.00;87.58
50093;BME280;35974;47.752;10.290;2022-09-12T01:01:59;94002.59;;;7.91;86.86
50093;BME280;35974;47.752;10.290;2022-09-12T01:04:27;94023.06;;;7.94;86.46
50093;BME280;35974;47.752;10.290;2022-09-12T01:06:55;94000.84;;;7.77;86.20
50093;BME280;35974;47.752;10.290;2022-09-12T01:09:23;94003.19;;;7.72;86.11
50093;BME280;35974;47.752;10.290;2022-09-12T01:11:51;94006.44;;;7.74;86.38
50093;BME280;35974;47.752;10.290;2022-09-12T01:14:20;94003.56;;;7.68;86.09
50093;BME280;35974;47.752;10.290;2022-09-12T01:16:47;94014.44;;;7.72;87.05
50093;BME280;35974;47.752;10.290;2022-09-12T01:31:17;94004.13;;;7.49;88.33
50093;BME280;35974;47.752;10.290;2022-09-12T01:39:17;93979.19;;;7.40;88.95
50093;BME280;35974;47.752;10.290;2022-09-12T01:42:48;93998.09;;;7.48;88.88
50093;BME280;35974;47.752;10.290;2022-09-12T01:45:02;93997.16;;;7.35;88.82
50093;BME280;35974;47.752;10.290;2022-09-12T01:47:45;93979.03;;;7.26;88.16
50093;BME280;35974;47.752;10.290;2022-09-12T01:50:18;93976.13;;;7.21;88.29
50093;BME280;35974;47.752;10.290;2022-09-12T01:52:53;93988.69;;;7.32;88.44
50093;BME280;35974;47.752;10.290;2022-09-12T01:55:31;93986.38;;;7.38;88.58
50093;BME280;35974;47.752;10.290;2022-09-12T01:58:04;93954.69;;;7.19;88.70
50093;BME280;35974;47.752;10.290;2022-09-12T02:00:35;93944.09;;;7.21;89.79
50093;BME280;35974;47.752;10.290;2022-09-12T02:03:09;93929.22;;;7.00;90.45
50093;BME280;35974;47.752;10.290;2022-09-12T02:05:47;93943.13;;;7.07;90.55
50093;BME280;35974;47.752;10.290;2022-09-12T02:08:47;93983.56;;;7.39;90.26
50093;BME280;35974;47.752;10.290;2022-09-12T02:11:17;93946.44;;;7.15;88.78
50093;BME280;35974;47.752;10.290;2022-09-12T02:19:08;93960.34;;;7.08;87.28
50093;BME280;35974;47.752;10.290;2022-09-12T02:21:38;93965.53;;;7.08;87.58
50093;BME280;35974;47.752;10.290;2022-09-12T02:24:07;93964.03;;;7.13;88.71
50093;BME280;35974;47.752;10.290;2022-09-12T02:26:47;93941.88;;;7.03;88.34
50093;BME280;35974;47.752;10.290;2022-09-12T02:29:15;93937.03;;;7.00;88.23
50093;BME280;35974;47.752;10.290;2022-09-12T02:31:47;93962.84;;;7.16;88.06
50093;BME280;35974;47.752;10.290;2022-09-12T02:39:45;93944.72;;;7.08;88.49
50093;BME280;35974;47.752;10.290;2022-09-12T02:42:12;93951.56;;;7.09;89.08
50093;BME280;35974;47.752;10.290;2022-09-12T02:44:39;93933.81;;;6.97;88.38
50093;BME280;35974;47.752;10.290;2022-09-12T02:47:37;93962.22;;;7.14;87.62
50093;BME280;35974;47.752;10.290;2022-09-12T02:50:05;93935.03;;;7.02;87.96
50093;BME280;35974;47.752;10.290;2022-09-12T02:52:33;93918.03;;;6.84;87.80
50093;BME280;35974;47.752;10.290;2022-09-12T02:55:03;93920.44;;;6.86;87.32
50093;BME280;35974;47.752;10.290;2022-09-12T02:57:30;93938.09;;;6.90;87.75
50093;BME280;35974;47.752;10.290;2022-09-12T02:59:59;93944.28;;;7.04;87.70
50093;BME280;35974;47.752;10.290;2022-09-12T03:05:22;93943.28;;;6.90;87.90
50093;BME280;35974;47.752;10.290;2022-09-12T03:16:02;93936.66;;;6.73;87.93
50093;BME280;35974;47.752;10.290;2022-09-12T03:18:50;93943.72;;;6.79;87.55
50093;BME280;35974;47.752;10.290;2022-09-12T03:21:43;93916.03;;;6.56;87.98
50093;BME280;35974;47.752;10.290;2022-09-12T03:24:20;93932.00;;;6.53;88.92
50093;BME280;35974;47.752;10.290;2022-09-12T03:26:55;93935.75;;;6.66;87.77
50093;BME280;35974;47.752;10.290;2022-09-12T03:29:25;93898.97;;;6.39;87.85
50093;BME280;35974;47.752;10.290;2022-09-12T03:31:54;93905.41;;;6.43;87.78
50093;BME280;35974;47.752;10.290;2022-09-12T03:34:23;93936.44;;;6.59;87.83
50093;BME280;35974;47.752;10.290;2022-09-12T03:36:51;93931.63;;;6.56;87.57
50093;BME280;35974;47.752;10.290;2022-09-12T03:39:17;93909.03;;;6.42;87.64
50093;BME280;35974;47.752;10.290;2022-09-12T03:41:45;93900.47;;;6.33;87.39
50093;BME280;35974;47.752;10.290;2022-09-12T03:44:11;93886.75;;;6.25;88.66
50093;BME280;35974;47.752;10.290;2022-09-12T03:46:38;93888.75;;;6.22;88.63
50093;BME280;35974;47.752;10.290;2022-09-12T03:49:04;93916.56;;;6.37;88.67
50093;BME280;35974;47.752;10.290;2022-09-12T03:51:31;93922.09;;;6.34;88.45
50093;BME280;35974;47.752;10.290;2022-09-12T03:53:57;93900.72;;;6.23;88.40
50093;BME280;35974;47.752;10.290;2022-09-12T03:56:24;93898.78;;;6.26;87.89
50093;BME280;35974;47.752;10.290;2022-09-12T03:58:50;93905.56;;;6.27;87.60
50093;BME280;35974;47.752;10.290;2022-09-12T04:01:18;93930.50;;;6.36;87.73
50093;BME280;35974;47.752;10.290;2022-09-12T04:03:49;93923.13;;;6.25;88.15
50093;BME280;35974;47.752;10.290;2022-09-12T04:06:20;93919.75;;;6.24;88.17
50093;BME280;35974;47.752;10.290;2022-09-12T04:08:48;93919.09;;;6.22;89.81
50093;BME280;35974;47.752;10.290;2022-09-12T04:11:17;93899.28;;;6.06;88.63
50093;BME280;35974;47.752;10.290;2022-09-12T04:13:44;93910.31;;;6.23;88.37
50093;BME280;35974;47.752;10.290;2022-09-12T04:16:13;93927.78;;;6.14;88.03
50093;BME280;35974;47.752;10.290;2022-09-12T04:18:40;93899.16;;;5.99;88.00
50093;BME280;35974;47.752;10.290;2022-09-12T04:21:12;93906.41;;;6.04;88.61
50093;BME280;35974;47.752;10.290;2022-09-12T04:23:38;93896.84;;;6.04;88.69
50093;BME280;35974;47.752;10.290;2022-09-12T04:26:06;93933.09;;;6.21;89.13
50093;BME280;35974;47.752;10.290;2022-09-12T04:28:34;93935.16;;;6.26;88.45
50093;BME280;35974;47.752;10.290;2022-09-12T04:31:03;93906.75;;;6.01;87.58
50093;BME280;35974;47.752;10.290;2022-09-12T04:33:30;93929.09;;;6.10;87.72
50093;BME280;35974;47.752;10.290;2022-09-12T04:36:04;93914.94;;;5.90;88.16
50093;BME280;35974;47.752;10.290;2022-09-12T04:38:32;93889.56;;;5.77;88.02
50093;BME280;35974;47.752;10.290;2022-09-12T04:40:59;93900.06;;;5.83;88.64
50093;BME280;35974;47.752;10.290;2022-09-12T04:43:26;93927.53;;;6.01;89.19
50093;BME280;35974;47.752;10.290;2022-09-12T04:45:52;93901.22;;;5.81;89.05
50093;BME280;35974;47.752;10.290;2022-09-12T04:48:19;93912.41;;;5.81;89.16
50093;BME280;35974;47.752;10.290;2022-09-12T04:50:45;93902.00;;;5.81;88.73
50093;BME280;35974;47.752;10.290;2022-09-12T04:53:12;93923.38;;;5.92;89.05
50093;BME280;35974;47.752;10.290;2022-09-12T04:55:38;93900.06;;;5.83;89.06
50093;BME280;35974;47.752;10.290;2022-09-12T04:58:04;93901.09;;;5.74;88.86
50093;BME280;35974;47.752;10.290;2022-09-12T05:00:31;93916.44;;;5.84;88.72
50093;BME280;35974;47.752;10.290;2022-09-12T05:02:58;93895.78;;;5.67;88.45
50093;BME280;35974;47.752;10.290;2022-09-12T05:05:24;93896.59;;;5.68;88.89
50093;BME280;35974;47.752;10.290;2022-09-12T05:07:51;93841.69;;;5.33;88.44
50093;BME280;35974;47.752;10.290;2022-09-12T05:10:17;93893.72;;;5.63;88.85
50093;BME280;35974;47.752;10.290;2022-09-12T05:12:43;93921.53;;;5.77;88.68
50093;BME280;35974;47.752;10.290;2022-09-12T05:15:10;93911.81;;;5.71;88.47
50093;BME280;35974;47.752;10.290;2022-09-12T05:17:36;93914.72;;;5.76;88.25
50093;BME280;35974;47.752;10.290;2022-09-12T05:20:03;93902.25;;;5.72;88.59
50093;BME280;35974;47.752;10.290;2022-09-12T05:22:30;93920.84;;;5.83;88.92
50093;BME280;35974;47.752;10.290;2022-09-12T05:24:56;93916.00;;;5.80;89.26
50093;BME280;35974;47.752;10.290;2022-09-12T05:27:22;93901.09;;;5.74;89.60
50093;BME280;35974;47.752;10.290;2022-09-12T05:29:49;93855.47;;;5.57;89.60
50093;BME280;35974;47.752;10.290;2022-09-12T05:32:15;93843.50;;;5.47;90.20
50093;BME280;35974;47.752;10.290;2022-09-12T05:34:41;93912.31;;;5.98;90.42
50093;BME280;35974;47.752;10.290;2022-09-12T05:37:08;93926.16;;;6.13;91.34
50093;BME280;35974;47.752;10.290;2022-09-12T05:39:34;93911.84;;;6.17;91.10
50093;BME280;35974;47.752;10.290;2022-09-12T05:42:00;93956.34;;;6.52;91.18
50093;BME280;35974;47.752;10.290;2022-09-12T05:44:27;93929.47;;;6.45;91.44
50093;BME280;35974;47.752;10.290;2022-09-12T05:46:56;93926.44;;;6.56;91.00
50093;BME280;35974;47.752;10.290;2022-09-12T05:49:22;93927.31;;;6.64;91.40
50093;BME280;35974;47.752;10.290;2022-09-12T05:51:49;93935.03;;;6.72;91.90
50093;BME280;35974;47.752;10.290;2022-09-12T05:54:21;93937.28;;;6.90;92.08
50093;BME280;35974;47.752;10.290;2022-09-12T05:56:47;93881.78;;;6.68;92.45
50093;BME280;35974;47.752;10.290;2022-09-12T05:59:19;93961.78;;;7.25;92.06
50093;BME280;35974;47.752;10.290;2022-09-12T06:01:47;93945.28;;;7.18;92.68
50093;BME280;35974;47.752;10.290;2022-09-12T06:04:14;93904.09;;;7.07;92.56
50093;BME280;35974;47.752;10.290;2022-09-12T06:06:43;93933.41;;;7.30;92.39
50093;BME280;35974;47.752;10.290;2022-09-12T06:09:15;93955.44;;;7.64;93.03
50093;BME280;35974;47.752;10.290;2022-09-12T06:11:42;93964.41;;;7.77;92.57
50093;BME280;35974;47.752;10.290;2022-09-12T06:14:13;93966.50;;;7.88;92.83
50093;BME280;35974;47.752;10.290;2022-09-12T06:16:39;93961.19;;;7.96;93.01
50093;BME280;35974;47.752;10.290;2022-09-12T06:19:18;93940.84;;;7.85;93.29
50093;BME280;35974;47.752;10.290;2022-09-12T06:21:45;93929.66;;;7.91;93.30
50093;BME280;35974;47.752;10.290;2022-09-12T06:24:14;93928.13;;;7.97;93.68
50093;BME280;35974;47.752;10.290;2022-09-12T06:26:40;93949.13;;;8.17;93.95
50093;BME280;35974;47.752;10.290;2022-09-12T06:29:08;93923.81;;;8.11;94.24
50093;BME280;35974;47.752;10.290;2022-09-12T06:31:38;93928.97;;;8.25;93.77
50093;BME280;35974;47.752;10.290;2022-09-12T06:34:08;93957.28;;;8.78;93.41
50093;BME280;35974;47.752;10.290;2022-09-12T06:36:37;93927.00;;;8.56;93.12
50093;BME280;35974;47.752;10.290;2022-09-12T06:39:09;93932.81;;;8.79;92.88
50093;BME280;35974;47.752;10.290;2022-09-12T06:41:37;93946.78;;;9.00;92.65
50093;BME280;35974;47.752;10.290;2022-09-12T06:44:14;93949.63;;;9.05;92.72
50093;BME280;35974;47.752;10.290;2022-09-12T06:46:41;93920.06;;;8.98;92.74
50093;BME280;35974;47.752;10.290;2022-09-12T06:49:08;93926.34;;;9.10;92.48
50093;BME280;35974;47.752;10.290;2022-09-12T06:51:35;93925.03;;;9.28;91.93
50093;BME280;35974;47.752;10.290;2022-09-12T06:54:01;93937.38;;;9.47;91.91
50093;BME280;35974;47.752;10.290;2022-09-12T06:56:29;93927.50;;;9.43;91.11
50093;BME280;35974;47.752;10.290;2022-09-12T06:58:58;93956.53;;;9.68;91.23
50093;BME280;35974;47.752;10.290;2022-09-12T07:01:27;93955.34;;;9.77;90.36
50093;BME280;35974;47.752;10.290;2022-09-12T07:04:00;93947.75;;;9.89;90.29
50093;BME280;35974;47.752;10.290;2022-09-12T07:06:31;93953.03;;;10.09;89.94
50093;BME280;35974;47.752;10.290;2022-09-12T07:09:03;93920.03;;;9.95;89.33
50093;BME280;35974;47.752;10.290;2022-09-12T07:11:33;93948.59;;;10.16;89.47
50093;BME280;35974;47.752;10.290;2022-09-12T07:14:01;93882.59;;;9.87;88.86
50093;BME280;35974;47.752;10.290;2022-09-12T07:16:28;93848.00;;;9.72;88.24
50093;BME280;35974;47.752;10.290;2022-09-12T07:18:58;93949.47;;;10.50;87.83
50093;BME280;35974;47.752;10.290;2022-09-12T07:21:25;93875.00;;;10.06;87.85
50093;BME280;35974;47.752;10.290;2022-09-12T07:23:53;93950.84;;;10.86;85.37
50093;BME280;35974;47.752;10.290;2022-09-12T07:26:28;93926.09;;;10.69;86.27
50093;BME280;35974;47.752;10.290;2022-09-12T07:28:55;93918.25;;;10.69;86.51
50093;BME280;35974;47.752;10.290;2022-09-12T07:31:44;93949.03;;;10.93;86.83
50093;BME280;35974;47.752;10.290;2022-09-12T07:34:11;93915.22;;;10.85;85.22
50093;BME280;35974;47.752;10.290;2022-09-12T07:36:40;93930.84;;;11.18;85.07
50093;BME280;35974;47.752;10.290;2022-09-12T07:39:06;93932.41;;;11.40;83.43
50093;BME280;35974;47.752;10.290;2022-09-12T07:41:33;93914.31;;;11.31;83.44
50093;BME280;35974;47.752;10.290;2022-09-12T07:44:01;93924.50;;;11.53;83.28
50093;BME280;35974;47.752;10.290;2022-09-12T07:46:30;93942.31;;;11.83;81.75
50093;BME280;35974;47.752;10.290;2022-09-12T07:48:59;93913.84;;;11.48;82.89
50093;BME280;35974;47.752;10.290;2022-09-12T07:51:28;93887.28;;;11.38;82.54
50093;BME280;35974;47.752;10.290;2022-09-12T07:53:55;93927.91;;;11.60;82.06
50093;BME280;35974;47.752;10.290;2022-09-12T07:56:24;93924.50;;;11.98;80.46
50093;BME280;35974;47.752;10.290;2022-09-12T07:58:57;93907.59;;;11.94;79.41
50093;BME280;35974;47.752;10.290;2022-09-12T08:01:24;93883.47;;;11.72;79.51
50093;BME280;35974;47.752;10.290;2022-09-12T08:03:58;93942.88;;;12.30;79.57
50093;BME280;35974;47.752;10.290;2022-09-12T08:06:26;93936.75;;;12.36;78.55
50093;BME280;35974;47.752;10.290;2022-09-12T08:08:55;93940.41;;;12.60;78.94
50093;BME280;35974;47.752;10.290;2022-09-12T08:11:23;93917.69;;;12.48;77.10
50093;BME280;35974;47.752;10.290;2022-09-12T08:13:50;93929.69;;;12.62;75.92
50093;BME280;35974;47.752;10.290;2022-09-12T08:16:25;93926.72;;;12.84;76.08
50093;BME280;35974;47.752;10.290;2022-09-12T08:18:52;93913.38;;;12.85;76.20
50093;BME280;35974;47.752;10.290;2022-09-12T08:21:24;93932.41;;;12.99;75.98
50093;BME280;35974;47.752;10.290;2022-09-12T08:23:53;93899.88;;;13.00;74.87
50093;BME280;35974;47.752;10.290;2022-09-12T08:26:20;93907.47;;;13.08;74.73
50093;BME280;35974;47.752;10.290;2022-09-12T08:28:46;93927.03;;;13.31;74.67
50093;BME280;35974;47.752;10.290;2022-09-12T08:31:17;93883.00;;;13.08;74.65
50093;BME280;35974;47.752;10.290;2022-09-12T08:33:45;93931.75;;;13.47;73.27
50093;BME280;35974;47.752;10.290;2022-09-12T08:36:16;93947.06;;;13.69;74.42
50093;BME280;35974;47.752;10.290;2022-09-12T08:38:50;93886.75;;;13.55;73.80
50093;BME280;35974;47.752;10.290;2022-09-12T08:41:43;93938.38;;;13.99;72.21
50093;BME280;35974;47.752;10.290;2022-09-12T08:49:38;93920.81;;;14.11;69.45
50093;BME280;35974;47.752;10.290;2022-09-12T08:58:19;93922.91;;;14.33;70.64
50093;BME280;35974;47.752;10.290;2022-09-12T09:01:03;93930.16;;;14.49;68.47
50093;BME280;35974;47.752;10.290;2022-09-12T09:12:03;93916.38;;;14.89;67.77
50093;BME280;35974;47.752;10.290;2022-09-12T09:14:39;93927.75;;;15.01;68.33
50093;BME280;35974;47.752;10.290;2022-09-12T09:17:38;93918.44;;;15.11;67.14
50093;BME280;35974;47.752;10.290;2022-09-12T09:22:46;93916.34;;;15.36;66.12
50093;BME280;35974;47.752;10.290;2022-09-12T09:25:28;93915.47;;;15.60;64.42
50093;BME280;35974;47.752;10.290;2022-09-12T09:28:04;93888.13;;;15.49;63.08
50093;BME280;35974;47.752;10.290;2022-09-12T09:30:35;93890.59;;;15.67;62.72
50093;BME280;35974;47.752;10.290;2022-09-12T09:33:04;93824.22;;;15.59;63.93
50093;BME280;35974;47.752;10.290;2022-09-12T09:43:56;93904.47;;;16.66;58.42
50093;BME280;35974;47.752;10.290;2022-09-12T09:46:25;93885.97;;;16.66;59.49
50093;BME280;35974;47.752;10.290;2022-09-12T09:48:52;93902.97;;;16.70;60.72
50093;BME280;35974;47.752;10.290;2022-09-12T09:51:25;93895.84;;;17.27;59.90
50093;BME280;35974;47.752;10.290;2022-09-12T09:53:59;93879.38;;;17.19;59.84
50093;BME280;35974;47.752;10.290;2022-09-12T09:56:31;93891.13;;;17.51;57.82
50093;BME280;35974;47.752;10.290;2022-09-12T09:59:14;93896.97;;;17.75;57.65
50093;BME280;35974;47.752;10.290;2022-09-12T10:01:46;93881.19;;;17.85;57.73
50093;BME280;35974;47.752;10.290;2022-09-12T10:06:50;93896.56;;;18.38;55.33
50093;BME280;35974;47.752;10.290;2022-09-12T10:09:20;93850.94;;;18.30;54.23
50093;BME280;35974;47.752;10.290;2022-09-12T10:11:48;93903.88;;;18.85;55.11
50093;BME280;35974;47.752;10.290;2022-09-12T10:16:53;93858.16;;;18.73;54.57
50093;BME280;35974;47.752;10.290;2022-09-12T10:19:22;93874.13;;;18.83;55.92
50093;BME280;35974;47.752;10.290;2022-09-12T10:21:55;93879.03;;;18.96;54.24
50093;BME280;35974;47.752;10.290;2022-09-12T10:27:15;93869.66;;;19.31;55.69
50093;BME280;35974;47.752;10.290;2022-09-12T10:30:02;93868.16;;;19.51;55.88
50093;BME280;35974;47.752;10.290;2022-09-12T10:32:38;93863.94;;;19.55;54.37
50093;BME280;35974;47.752;10.290;2022-09-12T10:35:20;93880.50;;;19.78;53.32
50093;BME280;35974;47.752;10.290;2022-09-12T10:37:56;93883.19;;;19.88;54.47
50093;BME280;35974;47.752;10.290;2022-09-12T10:40:37;93850.28;;;20.15;52.68
50093;BME280;35974;47.752;10.290;2022-09-12T10:43:17;93873.16;;;20.16;50.30
50093;BME280;35974;47.752;10.290;2022-09-12T10:45:44;93814.16;;;19.93;51.86
50093;BME280;35974;47.752;10.290;2022-09-12T10:48:24;93874.75;;;20.37;54.22
50093;BME280;35974;47.752;10.290;2022-09-12T10:50:55;93868.41;;;20.33;52.81
50093;BME280;35974;47.752;10.290;2022-09-12T10:53:30;93869.22;;;20.44;51.71
50093;BME280;35974;47.752;10.290;2022-09-12T10:57:10;93875.28;;;20.29;51.44
50093;BME280;35974;47.752;10.290;2022-09-12T11:07:38;93866.28;;;20.56;51.22
50093;BME280;35974;47.752;10.290;2022-09-12T11:10:21;93861.00;;;20.66;48.46
50093;BME280;35974;47.752;10.290;2022-09-12T11:15:47;93862.59;;;20.67;47.81
50093;BME280;35974;47.752;10.290;2022-09-12T11:21:18;93858.31;;;20.61;47.84
50093;BME280;35974;47.752;10.290;2022-09-12T11:32:39;93847.66;;;20.97;45.95
50093;BME280;35974;47.752;10.290;2022-09-12T11:35:31;93853.53;;;20.78;45.89
50093;BME280;35974;47.752;10.290;2022-09-12T11:38:07;93855.09;;;21.00;45.68
50093;BME280;35974;47.752;10.290;2022-09-12T11:40:45;93856.38;;;21.18;47.46
50093;BME280;35974;47.752;10.290;2022-09-12T11:45:59;93812.53;;;21.00;44.71
50093;BME280;35974;47.752;10.290;2022-09-12T11:51:27;93842.81;;;21.19;45.82
50093;BME280;35974;47.752;10.290;2022-09-12T11:56:52;93847.63;;;21.17;44.54
50093;BME280;35974;47.752;10.290;2022-09-12T11:59:39;93825.53;;;21.22;43.79
50093;BME280;35974;47.752;10.290;2022-09-12T12:02:14;93826.78;;;21.40;42.95
50093;BME280;35974;47.752;10.290;2022-09-12T12:05:03;93828.91;;;21.38;43.20
50093;BME280;35974;47.752;10.290;2022-09-12T12:07:38;93844.88;;;21.48;44.34
50093;BME280;35974;47.752;10.290;2022-09-12T12:10:22;93834.81;;;21.35;46.18
50093;BME280;35974;47.752;10.290;2022-09-12T12:12:52;93844.31;;;21.56;45.41
50093;BME280;35974;47.752;10.290;2022-09-12T12:15:21;93809.16;;;21.60;43.09
50093;BME280;35974;47.752;10.290;2022-09-12T12:18:05;93835.66;;;21.80;43.93
50093;BME280;35974;47.752;10.290;2022-09-12T12:20:33;93812.38;;;21.56;43.11
50093;BME280;35974;47.752;10.290;2022-09-12T12:23:00;93836.22;;;21.77;43.63
50093;BME280;35974;47.752;10.290;2022-09-12T12:25:50;93798.47;;;21.70;42.45
50093;BME280;35974;47.752;10.290;2022-09-12T12:31:09;93817.97;;;22.05;44.18
50093;BME280;35974;47.752;10.290;2022-09-12T12:36:10;93815.84;;;22.02;43.07
50093;BME280;35974;47.752;10.290;2022-09-12T12:38:53;93803.84;;;22.04;41.41
50093;BME280;35974;47.752;10.290;2022-09-12T12:43:50;93831.69;;;22.22;42.87
50093;BME280;35974;47.752;10.290;2022-09-12T12:46:21;93781.00;;;21.93;43.53
50093;BME280;35974;47.752;10.290;2022-09-12T12:49:00;93811.00;;;22.09;43.35
50093;BME280;35974;47.752;10.290;2022-09-12T12:51:44;93818.53;;;22.02;42.36
50093;BME280;35974;47.752;10.290;2022-09-12T12:54:26;93817.31;;;21.79;43.31
50093;BME280;35974;47.752;10.290;2022-09-12T12:59:51;93799.34;;;22.39;42.47
50093;BME280;35974;47.752;10.290;2022-09-12T13:02:23;93798.25;;;22.45;43.05
50093;BME280;35974;47.752;10.290;2022-09-12T13:04:51;93782.59;;;22.28;42.92
50093;BME280;35974;47.752;10.290;2022-09-12T13:07:30;93781.06;;;22.22;41.74
50093;BME280;35974;47.752;10.290;2022-09-12T13:09:58;93799.69;;;22.33;41.60
50093;BME280;35974;47.752;10.290;2022-09-12T13:12:44;93801.75;;;22.41;42.16
50093;BME280;35974;47.752;10.290;2022-09-12T13:18:09;93782.00;;;22.42;42.60
50093;BME280;35974;47.752;10.290;2022-09-12T13:20:59;93781.19;;;22.41;42.38
50093;BME280;35974;47.752;10.290;2022-09-12T13:23:31;93769.38;;;22.18;42.62
50093;BME280;35974;47.752;10.290;2022-09-12T13:25:59;93747.44;;;22.26;43.13
50093;BME280;35974;47.752;10.290;2022-09-12T13:28:29;93780.41;;;22.41;43.98
50093;BME280;35974;47.752;10.290;2022-09-12T13:31:10;93773.31;;;22.60;42.53
50093;BME280;35974;47.752;10.290;2022-09-12T13:33:44;93787.72;;;22.59;41.71
50093;BME280;35974;47.752;10.290;2022-09-12T13:39:11;93777.03;;;22.59;42.45
50093;BME280;35974;47.752;10.290;2022-09-12T13:44:31;93771.59;;;22.70;42.98
50093;BME280;35974;47.752;10.290;2022-09-12T13:47:01;93754.22;;;22.48;44.69
50093;BME280;35974;47.752;10.290;2022-09-12T13:49:35;93763.09;;;22.67;43.54
50093;BME280;35974;47.752;10.290;2022-09-12T13:52:05;93745.19;;;22.44;42.18
50093;BME280;35974;47.752;10.290;2022-09-12T13:54:34;93748.69;;;22.69;43.08
50093;BME280;35974;47.752;10.290;2022-09-12T13:57:04;93762.97;;;22.78;42.51
50093;BME280;35974;47.752;10.290;2022-09-12T13:59:41;93752.91;;;22.75;40.68
50093;BME280;35974;47.752;10.290;2022-09-12T14:02:20;93756.53;;;22.84;41.79
50093;BME280;35974;47.752;10.290;2022-09-12T14:04:48;93744.88;;;22.99;43.67
50093;BME280;35974;47.752;10.290;2022-09-12T14:07:56;93744.94;;;22.70;43.43
50093;BME280;35974;47.752;10.290;2022-09-12T14:10:41;93754.16;;;23.07;42.62
50093;BME280;35974;47.752;10.290;2022-09-12T14:13:17;93748.78;;;23.12;43.76
50093;BME280;35974;47.752;10.290;2022-09-12T14:15:46;93759.03;;;22.99;42.38
50093;BME280;35974;47.752;10.290;2022-09-12T14:18:28;93755.97;;;23.35;42.56
50093;BME280;35974;47.752;10.290;2022-09-12T14:21:01;93749.75;;;23.21;42.71
50093;BME280;35974;47.752;10.290;2022-09-12T14:23:39;93754.50;;;23.00;42.29
50093;BME280;35974;47.752;10.290;2022-09-12T14:26:09;93706.00;;;22.44;42.34
50093;BME280;35974;47.752;10.290;2022-09-12T14:28:41;93721.47;;;22.72;43.25
50093;BME280;35974;47.752;10.290;2022-09-12T14:33:52;93735.88;;;22.71;41.81
50093;BME280;35974;47.752;10.290;2022-09-12T14:36:47;93732.22;;;22.85;42.64
50093;BME280;35974;47.752;10.290;2022-09-12T14:41:45;93719.63;;;22.67;42.43
50093;BME280;35974;47.752;10.290;2022-09-12T14:44:18;93722.47;;;22.76;42.64
50093;BME280;35974;47.752;10.290;2022-09-12T14:46:46;93699.09;;;22.67;43.85
50093;BME280;35974;47.752;10.290;2022-09-12T14:49:17;93741.66;;;23.02;44.34
50093;BME280;35974;47.752;10.290;2022-09-12T14:56:58;93715.47;;;23.09;43.58
50093;BME280;35974;47.752;10.290;2022-09-12T15:04:51;93727.19;;;23.32;43.98
50093;BME280;35974;47.752;10.290;2022-09-12T15:09:57;93723.44;;;23.33;41.00
50093;BME280;35974;47.752;10.290;2022-09-12T15:12:24;93703.94;;;23.14;40.46
50093;BME280;35974;47.752;10.290;2022-09-12T15:14:51;93726.53;;;23.40;42.26
50093;BME280;35974;47.752;10.290;2022-09-12T15:17:20;93706.13;;;22.82;41.63
50093;BME280;35974;47.752;10.290;2022-09-12T15:19:46;93714.88;;;22.88;41.73
50093;BME280;35974;47.752;10.290;2022-09-12T15:22:12;93720.31;;;22.78;42.86
50093;BME280;35974;47.752;10.290;2022-09-12T15:24:39;93713.50;;;22.91;43.05
50093;BME280;35974;47.752;10.290;2022-09-12T15:27:12;93719.09;;;22.94;42.23
50093;BME280;35974;47.752;10.290;2022-09-12T15:29:38;93720.09;;;22.98;42.79
50093;BME280;35974;47.752;10.290;2022-09-12T15:32:05;93690.81;;;22.69;43.05
50093;BME280;35974;47.752;10.290;2022-09-12T15:34:32;93698.75;;;22.74;42.87
50093;BME280;35974;47.752;10.290;2022-09-12T15:36:58;93690.47;;;22.76;40.75
50093;BME280;35974;47.752;10.290;2022-09-12T15:39:26;93695.78;;;23.00;40.56
50093;BME280;35974;47.752;10.290;2022-09-12T15:41:52;93679.56;;;22.96;42.15
50093;BME280;35974;47.752;10.290;2022-09-12T15:44:19;93679.44;;;23.07;41.49
50093;BME280;35974;47.752;10.290;2022-09-12T15:46:46;93701.25;;;23.14;41.66
50093;BME280;35974;47.752;10.290;2022-09-12T15:49:13;93714.25;;;23.39;43.07